sensor_id;sensor_type;location;lat;lon;timestamp;pressure;altitude;pressure_sealevel;temperature;humidity
49055;BME280;35405;52.344;14.530;2022-12-24T07:20:41;99867.16;;;3.96;100.00
49055;BME280;35405;52.344;14.530;2022-12-24T07:23:06;99871.47;;;3.92;100.00
49055;BME280;35405;52.344;14.530;2022-12-24T07:25:31;99874.41;;;3.90;100.00
49055;BME280;35405;52.344;14.530;2022-12-24T07:27:57;99874.94;;;3.92;100.00
49055;BME280;35405;52.344;14.530;2022-12-24T07:30:22;99881.41;;;3.96;100.00
49055;BME280;35405;52.344;14.530;2022-12-24T07:32:47;99892.19;;;4.01;100.00
49055;BME280;35405;52.344;14.530;2022-12-24T07:35:12;99889.50;;;4.01;100.00
49055;BME280;35405;52.344;14.530;2022-12-24T07:37:37;99897.00;;;3.99;100.00
49055;BME280;35405;52.344;14.530;2022-12-24T07:40:03;99896.47;;;4.02;100.00
49055;BME280;35405;52.344;14.530;2022-12-24T07:42:32;99907.81;;;4.09;100.00
49055;BME280;35405;52.344;14.530;2022-12-24T07:44:57;99898.66;;;4.16;100.00
49055;BME280;35405;52.344;14.530;2022-12-24T07:47:22;99903.22;;;4.15;100.00
49055;BME280;35405;52.344;14.530;2022-12-24T07:49:47;99904.31;;;4.19;100.00
49055;BME280;35405;52.344;14.530;2022-12-24T07:52:12;99911.56;;;4.24;100.00
49055;BME280;35405;52.344;14.530;2022-12-24T07:57:41;99917.50;;;4.31;100.00
49055;BME280;35405;52.344;14.530;2022-12-24T08:00:06;99914.25;;;4.29;100.00
49055;BME280;35405;52.344;14.530;2022-12-24T08:02:31;99918.84;;;4.28;100.00
49055;BME280;35405;52.344;14.530;2022-12-24T08:04:56;99923.94;;;4.30;100.00
49055;BME280;35405;52.344;14.530;2022-12-24T08:07:22;99929.09;;;4.37;100.00
49055;BME280;35405;52.344;14.530;2022-12-24T08:09:47;99931.50;;;4.38;100.00
49055;BME280;35405;52.344;14.530;2022-12-24T08:12:12;99928.00;;;4.38;100.00
49055;BME280;35405;52.344;14.530;2022-12-24T08:14:37;99926.09;;;4.33;100.00
49055;BME280;35405;52.344;14.530;2022-12-24T08:17:02;99933.13;;;4.34;100.00
49055;BME280;35405;52.344;14.530;2022-12-24T08:19:28;99932.31;;;4.33;100.00
49055;BME280;35405;52.344;14.530;2022-12-24T08:21:53;99939.28;;;4.29;100.00
49055;BME280;35405;52.344;14.530;2022-12-24T08:24:18;99943.63;;;4.30;100.00
49055;BME280;35405;52.344;14.530;2022-12-24T08:26:43;99950.06;;;4.29;100.00
49055;BME280;35405;52.344;14.530;2022-12-24T08:29:08;99950.88;;;4.35;100.00
49055;BME280;35405;52.344;14.530;2022-12-24T08:31:34;99947.63;;;4.38;100.00
49055;BME280;35405;52.344;14.530;2022-12-24T08:34:01;99948.19;;;4.40;100.00
49055;BME280;35405;52.344;14.530;2022-12-24T08:36:26;99951.94;;;4.44;100.00
49055;BME280;35405;52.344;14.530;2022-12-24T08:38:51;99957.88;;;4.46;100.00
49055;BME280;35405;52.344;14.530;2022-12-24T08:41:17;99961.66;;;4.50;100.00
49055;BME280;35405;52.344;14.530;2022-12-24T08:43:42;99959.22;;;4.54;100.00
49055;BME280;35405;52.344;14.530;2022-12-24T08:46:08;99957.06;;;4.56;100.00
49055;BME280;35405;52.344;14.530;2022-12-24T08:48:33;99961.09;;;4.53;100.00
49055;BME280;35405;52.344;14.530;2022-12-24T08:51:00;99961.38;;;4.52;100.00
49055;BME280;35405;52.344;14.530;2022-12-24T08:53:29;99970.53;;;4.56;100.00
49055;BME280;35405;52.344;14.530;2022-12-24T08:55:59;99979.44;;;4.51;100.00
49055;BME280;35405;52.344;14.530;2022-12-24T08:58:25;99973.50;;;4.49;100.00
49055;BME280;35405;52.344;14.530;2022-12-24T09:00:50;99976.75;;;4.51;100.00
49055;BME280;35405;52.344;14.530;2022-12-24T09:03:15;99979.94;;;4.53;100.00
49055;BME280;35405;52.344;14.530;2022-12-24T09:05:40;99984.81;;;4.62;100.00
49055;BME280;35405;52.344;14.530;2022-12-24T09:08:05;99986.44;;;4.68;100.00
49055;BME280;35405;52.344;14.530;2022-12-24T09:10:30;99986.97;;;4.75;100.00
49055;BME280;35405;52.344;14.530;2022-12-24T09:12:56;99981.88;;;4.78;100.00
49055;BME280;35405;52.344;14.530;2022-12-24T09:15:21;99991.25;;;4.81;100.00
49055;BME280;35405;52.344;14.530;2022-12-24T09:17:46;99988.56;;;4.86;100.00
49055;BME280;35405;52.344;14.530;2022-12-24T09:20:11;99990.19;;;4.87;100.00
49055;BME280;35405;52.344;14.530;2022-12-24T09:22:37;99986.13;;;4.90;100.00
49055;BME280;35405;52.344;14.530;2022-12-24T09:25:03;99986.97;;;4.85;100.00
49055;BME280;35405;52.344;14.530;2022-12-24T09:27:30;99990.47;;;4.86;100.00
49055;BME280;35405;52.344;14.530;2022-12-24T09:29:58;99986.97;;;4.85;100.00
49055;BME280;35405;52.344;14.530;2022-12-24T09:32:23;99993.97;;;4.91;100.00
49055;BME280;35405;52.344;14.530;2022-12-24T09:34:49;99994.50;;;4.88;100.00
49055;BME280;35405;52.344;14.530;2022-12-24T09:37:14;99994.22;;;4.90;100.00
49055;BME280;35405;52.344;14.530;2022-12-24T09:39:40;99993.97;;;4.91;100.00
49055;BME280;35405;52.344;14.530;2022-12-24T09:42:24;99994.47;;;4.93;100.00
49055;BME280;35405;52.344;14.530;2022-12-24T09:44:57;99992.34;;;4.95;100.00
49055;BME280;35405;52.344;14.530;2022-12-24T09:47:28;100004.47;;;4.93;100.00
49055;BME280;35405;52.344;14.530;2022-12-24T09:49:56;99999.63;;;4.90;100.00
49055;BME280;35405;52.344;14.530;2022-12-24T09:52:34;100015.50;;;4.81;100.00
49055;BME280;35405;52.344;14.530;2022-12-24T09:55:02;100023.59;;;4.81;100.00
49055;BME280;35405;52.344;14.530;2022-12-24T09:57:31;100023.06;;;4.84;100.00
49055;BME280;35405;52.344;14.530;2022-12-24T09:59:58;100028.19;;;4.86;100.00
49055;BME280;35405;52.344;14.530;2022-12-24T10:02:23;100026.84;;;4.83;100.00
49055;BME280;35405;52.344;14.530;2022-12-24T10:04:49;100028.97;;;4.81;100.00
49055;BME280;35405;52.344;14.530;2022-12-24T10:09:47;100029.25;;;4.95;100.00
49055;BME280;35405;52.344;14.530;2022-12-24T10:25:03;100035.19;;;4.97;100.00
49055;BME280;35405;52.344;14.530;2022-12-24T10:27:32;100043.28;;;4.97;100.00
49055;BME280;35405;52.344;14.530;2022-12-24T10:30:00;100044.09;;;5.02;100.00
49055;BME280;35405;52.344;14.530;2022-12-24T10:32:28;100051.34;;;5.12;100.00
49055;BME280;35405;52.344;14.530;2022-12-24T10:34:59;100039.75;;;5.17;100.00
49055;BME280;35405;52.344;14.530;2022-12-24T10:37:28;100045.97;;;5.12;100.00
49055;BME280;35405;52.344;14.530;2022-12-24T10:39:54;100036.53;;;5.10;100.00
49055;BME280;35405;52.344;14.530;2022-12-24T10:42:20;100058.91;;;5.15;100.00
49055;BME280;35405;52.344;14.530;2022-12-24T10:44:49;100065.34;;;5.19;100.00
49055;BME280;35405;52.344;14.530;2022-12-24T10:47:15;100063.47;;;5.30;100.00
49055;BME280;35405;52.344;14.530;2022-12-24T10:49:52;100067.78;;;5.36;100.00
49055;BME280;35405;52.344;14.530;2022-12-24T10:52:39;100062.94;;;5.33;100.00
49055;BME280;35405;52.344;14.530;2022-12-24T10:55:05;100075.84;;;5.26;100.00
49055;BME280;35405;52.344;14.530;2022-12-24T10:57:31;100085.59;;;5.27;100.00
49055;BME280;35405;52.344;14.530;2022-12-24T11:00:11;100077.75;;;5.36;100.00
49055;BME280;35405;52.344;14.530;2022-12-24T11:02:42;100092.00;;;5.41;100.00
49055;BME280;35405;52.344;14.530;2022-12-24T11:05:25;100079.06;;;5.43;100.00
49055;BME280;35405;52.344;14.530;2022-12-24T11:08:04;100091.47;;;5.49;100.00
49055;BME280;35405;52.344;14.530;2022-12-24T11:10:39;100091.47;;;5.55;100.00
49055;BME280;35405;52.344;14.530;2022-12-24T11:13:04;100095.53;;;5.57;100.00
49055;BME280;35405;52.344;14.530;2022-12-24T11:15:31;100101.72;;;5.58;100.00
49055;BME280;35405;52.344;14.530;2022-12-24T11:17:59;100101.16;;;5.61;100.00
49055;BME280;35405;52.344;14.530;2022-12-24T11:20:28;100102.53;;;5.58;100.00
49055;BME280;35405;52.344;14.530;2022-12-24T11:22:54;100101.16;;;5.61;100.00
49055;BME280;35405;52.344;14.530;2022-12-24T11:27:46;100101.16;;;5.66;100.00
49055;BME280;35405;52.344;14.530;2022-12-24T11:32:40;100106.78;;;5.85;100.00
49055;BME280;35405;52.344;14.530;2022-12-24T11:35:06;100115.66;;;6.01;100.00
49055;BME280;35405;52.344;14.530;2022-12-24T11:37:31;100128.06;;;6.02;100.00
49055;BME280;35405;52.344;14.530;2022-12-24T11:39:58;100126.47;;;5.90;100.00
49055;BME280;35405;52.344;14.530;2022-12-24T11:42:29;100131.88;;;5.90;100.00
49055;BME280;35405;52.344;14.530;2022-12-24T11:44:55;100135.38;;;5.91;100.00
49055;BME280;35405;52.344;14.530;2022-12-24T11:47:31;100136.16;;;5.91;100.00
49055;BME280;35405;52.344;14.530;2022-12-24T11:50:10;100142.16;;;5.93;100.00
49055;BME280;35405;52.344;14.530;2022-12-24T11:52:41;100132.41;;;6.08;100.00
49055;BME280;35405;52.344;14.530;2022-12-24T11:57:42;100150.50;;;6.02;100.00
49055;BME280;35405;52.344;14.530;2022-12-24T12:00:09;100153.75;;;5.99;100.00
49055;BME280;35405;52.344;14.530;2022-12-24T12:02:38;100164.00;;;5.97;100.00
49055;BME280;35405;52.344;14.530;2022-12-24T12:07:42;100175.59;;;5.98;100.00
49055;BME280;35405;52.344;14.530;2022-12-24T12:10:18;100173.69;;;5.98;100.00
49055;BME280;35405;52.344;14.530;2022-12-24T12:13:05;100173.69;;;5.98;100.00
49055;BME280;35405;52.344;14.530;2022-12-24T12:15:34;100179.66;;;6.00;100.00
49055;BME280;35405;52.344;14.530;2022-12-24T12:20:37;100183.66;;;6.18;100.00
49055;BME280;35405;52.344;14.530;2022-12-24T12:28:13;100190.09;;;6.22;100.00
49055;BME280;35405;52.344;14.530;2022-12-24T12:30:40;100191.16;;;6.31;100.00
49055;BME280;35405;52.344;14.530;2022-12-24T12:35:36;100192.50;;;6.39;100.00
49055;BME280;35405;52.344;14.530;2022-12-24T12:38:04;100188.91;;;6.59;100.00
49055;BME280;35405;52.344;14.530;2022-12-24T12:46:27;100208.06;;;6.62;100.00
49055;BME280;35405;52.344;14.530;2022-12-24T12:54:16;100227.53;;;6.59;100.00
49055;BME280;35405;52.344;14.530;2022-12-24T12:56:46;100223.50;;;6.47;100.00
49055;BME280;35405;52.344;14.530;2022-12-24T12:59:14;100231.66;;;6.41;100.00
49055;BME280;35405;52.344;14.530;2022-12-24T13:01:47;100245.97;;;6.37;100.00
49055;BME280;35405;52.344;14.530;2022-12-24T13:10:10;100252.22;;;6.27;100.00
49055;BME280;35405;52.344;14.530;2022-12-24T13:17:48;100273.78;;;6.43;100.00
49055;BME280;35405;52.344;14.530;2022-12-24T13:20:25;100277.84;;;6.45;100.00
49055;BME280;35405;52.344;14.530;2022-12-24T13:25:23;100280.81;;;6.38;100.00
49055;BME280;35405;52.344;14.530;2022-12-24T13:27:50;100283.28;;;6.35;100.00
49055;BME280;35405;52.344;14.530;2022-12-24T13:30:32;100290.00;;;6.37;100.00
49055;BME280;35405;52.344;14.530;2022-12-24T13:32:58;100283.53;;;6.33;100.00
49055;BME280;35405;52.344;14.530;2022-12-24T13:35:27;100295.41;;;6.32;100.00
49055;BME280;35405;52.344;14.530;2022-12-24T13:37:53;100291.63;;;6.33;100.00
49055;BME280;35405;52.344;14.530;2022-12-24T13:40:34;100290.28;;;6.36;100.00
49055;BME280;35405;52.344;14.530;2022-12-24T13:47:56;100295.69;;;6.41;100.00
49055;BME280;35405;52.344;14.530;2022-12-24T13:55:55;100302.97;;;6.35;100.00
49055;BME280;35405;52.344;14.530;2022-12-24T13:58:22;100296.78;;;6.35;100.00
49055;BME280;35405;52.344;14.530;2022-12-24T14:00:58;100312.97;;;6.35;100.00
49055;BME280;35405;52.344;14.530;2022-12-24T14:03:26;100303.25;;;6.34;100.00
49055;BME280;35405;52.344;14.530;2022-12-24T14:05:57;100311.34;;;6.34;100.00
49055;BME280;35405;52.344;14.530;2022-12-24T14:18:28;100330.78;;;6.26;100.00
49055;BME280;35405;52.344;14.530;2022-12-24T14:20:55;100328.63;;;6.23;100.00
49055;BME280;35405;52.344;14.530;2022-12-24T14:26:27;100348.06;;;6.19;100.00
49055;BME280;35405;52.344;14.530;2022-12-24T14:28:54;100347.25;;;6.19;100.00
49055;BME280;35405;52.344;14.530;2022-12-24T14:31:20;100352.16;;;6.17;100.00
49055;BME280;35405;52.344;14.530;2022-12-24T14:33:45;100344.59;;;6.14;100.00
49055;BME280;35405;52.344;14.530;2022-12-24T14:36:11;100348.34;;;6.13;100.00
49055;BME280;35405;52.344;14.530;2022-12-24T14:38:39;100354.84;;;6.12;100.00
49055;BME280;35405;52.344;14.530;2022-12-24T14:49:07;100361.78;;;5.92;100.00
49055;BME280;35405;52.344;14.530;2022-12-24T14:51:38;100365.59;;;5.91;100.00
49055;BME280;35405;52.344;14.530;2022-12-24T14:54:14;100361.53;;;5.84;100.00
49055;BME280;35405;52.344;14.530;2022-12-24T14:56:43;100366.63;;;5.65;100.00
49055;BME280;35405;52.344;14.530;2022-12-24T14:59:15;100364.19;;;5.58;100.00
49055;BME280;35405;52.344;14.530;2022-12-24T15:01:40;100376.34;;;5.66;100.00
49055;BME280;35405;52.344;14.530;2022-12-24T15:06:36;100358.53;;;5.70;100.00
49055;BME280;35405;52.344;14.530;2022-12-24T15:09:02;100376.06;;;5.57;100.00
49055;BME280;35405;52.344;14.530;2022-12-24T15:11:27;100381.69;;;5.45;100.00
49055;BME280;35405;52.344;14.530;2022-12-24T15:13:53;100383.50;;;5.35;100.00
49055;BME280;35405;52.344;14.530;2022-12-24T15:16:26;100389.97;;;5.23;100.00
49055;BME280;35405;52.344;14.530;2022-12-24T15:19:26;100400.44;;;5.15;100.00
49055;BME280;35405;52.344;14.530;2022-12-24T15:21:43;100400.69;;;5.13;100.00
49055;BME280;35405;52.344;14.530;2022-12-24T15:24:28;100409.03;;;5.12;100.00
49055;BME280;35405;52.344;14.530;2022-12-24T15:26:56;100407.41;;;5.11;100.00
49055;BME280;35405;52.344;14.530;2022-12-24T15:29:22;100405.59;;;5.21;100.00
49055;BME280;35405;52.344;14.530;2022-12-24T15:31:54;100411.28;;;5.35;100.00
49055;BME280;35405;52.344;14.530;2022-12-24T15:34:34;100401.63;;;5.44;100.00
49055;BME280;35405;52.344;14.530;2022-12-24T15:39:44;100400.03;;;5.48;100.00
49055;BME280;35405;52.344;14.530;2022-12-24T15:42:16;100410.00;;;5.48;100.00
49055;BME280;35405;52.344;14.530;2022-12-24T15:47:18;100405.94;;;5.45;100.00
49055;BME280;35405;52.344;14.530;2022-12-24T15:49:46;100409.47;;;5.46;100.00
49055;BME280;35405;52.344;14.530;2022-12-24T15:52:13;100408.66;;;5.45;100.00
49055;BME280;35405;52.344;14.530;2022-12-24T15:54:46;100421.31;;;5.45;100.00
49055;BME280;35405;52.344;14.530;2022-12-24T15:57:30;100420.22;;;5.41;100.00
49055;BME280;35405;52.344;14.530;2022-12-24T15:59:57;100419.41;;;5.40;100.00
49055;BME280;35405;52.344;14.530;2022-12-24T16:02:31;100421.03;;;5.36;100.00
49055;BME280;35405;52.344;14.530;2022-12-24T16:07:40;100419.13;;;5.37;100.00
49055;BME280;35405;52.344;14.530;2022-12-24T16:10:28;100424.81;;;5.40;100.00
49055;BME280;35405;52.344;14.530;2022-12-24T16:12:54;100421.03;;;5.41;100.00
49055;BME280;35405;52.344;14.530;2022-12-24T16:15:19;100425.34;;;5.47;100.00
49055;BME280;35405;52.344;14.530;2022-12-24T16:17:46;100429.66;;;5.43;100.00
49055;BME280;35405;52.344;14.530;2022-12-24T16:20:15;100431.56;;;5.43;100.00
49055;BME280;35405;52.344;14.530;2022-12-24T16:22:44;100433.72;;;5.46;100.00
49055;BME280;35405;52.344;14.530;2022-12-24T16:25:24;100434.53;;;5.46;100.00
49055;BME280;35405;52.344;14.530;2022-12-24T16:27:50;100442.59;;;5.41;100.00
49055;BME280;35405;52.344;14.530;2022-12-24T16:30:15;100445.84;;;5.43;100.00
49055;BME280;35405;52.344;14.530;2022-12-24T16:32:41;100453.69;;;5.50;100.00
49055;BME280;35405;52.344;14.530;2022-12-24T16:35:11;100453.72;;;5.55;100.00
49055;BME280;35405;52.344;14.530;2022-12-24T16:37:41;100451.84;;;5.50;100.00
49055;BME280;35405;52.344;14.530;2022-12-24T16:40:11;100455.03;;;5.47;100.00
49055;BME280;35405;52.344;14.530;2022-12-24T16:42:37;100455.06;;;5.53;100.00
49055;BME280;35405;52.344;14.530;2022-12-24T16:45:20;100453.47;;;5.62;100.00
49055;BME280;35405;52.344;14.530;2022-12-24T16:47:45;100461.63;;;5.72;100.00
49055;BME280;35405;52.344;14.530;2022-12-24T16:50:13;100465.72;;;5.85;100.00
49055;BME280;35405;52.344;14.530;2022-12-24T16:52:39;100466.03;;;5.93;100.00
49055;BME280;35405;52.344;14.530;2022-12-24T16:55:05;100468.72;;;5.99;100.00
49055;BME280;35405;52.344;14.530;2022-12-24T16:57:31;100463.84;;;5.95;100.00
49055;BME280;35405;52.344;14.530;2022-12-24T16:59:57;100469.25;;;5.95;100.00
49055;BME280;35405;52.344;14.530;2022-12-24T17:02:22;100470.38;;;6.00;100.00
49055;BME280;35405;52.344;14.530;2022-12-24T17:04:49;100476.59;;;6.05;100.00
49055;BME280;35405;52.344;14.530;2022-12-24T17:07:15;100475.25;;;6.03;100.00
49055;BME280;35405;52.344;14.530;2022-12-24T17:09:40;100476.53;;;5.90;100.00
49055;BME280;35405;52.344;14.530;2022-12-24T17:12:06;100478.66;;;5.78;100.00
49055;BME280;35405;52.344;14.530;2022-12-24T17:14:31;100484.25;;;5.71;100.00
49055;BME280;35405;52.344;14.530;2022-12-24T17:16:56;100483.97;;;5.62;100.00
49055;BME280;35405;52.344;14.530;2022-12-24T17:19:22;100482.09;;;5.63;100.00
49055;BME280;35405;52.344;14.530;2022-12-24T17:21:47;100489.88;;;5.54;100.00
49055;BME280;35405;52.344;14.530;2022-12-24T17:24:12;100487.09;;;5.44;100.00
49055;BME280;35405;52.344;14.530;2022-12-24T17:26:38;100490.09;;;5.42;100.00
49055;BME280;35405;52.344;14.530;2022-12-24T17:29:03;100483.03;;;5.41;100.00
49055;BME280;35405;52.344;14.530;2022-12-24T17:31:29;100488.19;;;5.43;100.00
49055;BME280;35405;52.344;14.530;2022-12-24T17:33:54;100492.47;;;5.34;100.00
49055;BME280;35405;52.344;14.530;2022-12-24T17:36:19;100495.91;;;5.24;100.00
49055;BME280;35405;52.344;14.530;2022-12-24T17:38:45;100492.59;;;5.12;100.00
49055;BME280;35405;52.344;14.530;2022-12-24T17:41:11;100501.97;;;5.04;100.00
49055;BME280;35405;52.344;14.530;2022-12-24T17:43:39;100504.91;;;4.97;100.00
49055;BME280;35405;52.344;14.530;2022-12-24T17:46:05;100513.50;;;4.94;100.00
49055;BME280;35405;52.344;14.530;2022-12-24T17:48:30;100500.78;;;4.90;100.00
49055;BME280;35405;52.344;14.530;2022-12-24T17:50:56;100505.94;;;4.91;100.00
49055;BME280;35405;52.344;14.530;2022-12-24T17:53:21;100509.09;;;4.83;100.00
49055;BME280;35405;52.344;14.530;2022-12-24T17:55:46;100510.66;;;4.74;100.00
49055;BME280;35405;52.344;14.530;2022-12-24T17:58:11;100514.59;;;4.61;100.00
49055;BME280;35405;52.344;14.530;2022-12-24T18:00:38;100524.44;;;4.50;100.00
49055;BME280;35405;52.344;14.530;2022-12-24T18:03:03;100522.25;;;4.47;100.00
49055;BME280;35405;52.344;14.530;2022-12-24T18:05:28;100530.41;;;4.52;100.00
49055;BME280;35405;52.344;14.530;2022-12-24T18:07:53;100534.16;;;4.51;100.00
49055;BME280;35405;52.344;14.530;2022-12-24T18:10:18;100535.72;;;4.47;100.00
49055;BME280;35405;52.344;14.530;2022-12-24T18:12:45;100533.47;;;4.39;100.00
49055;BME280;35405;52.344;14.530;2022-12-24T18:15:10;100533.69;;;4.32;100.00
49055;BME280;35405;52.344;14.530;2022-12-24T18:17:35;100537.44;;;4.31;100.00
49055;BME280;35405;52.344;14.530;2022-12-24T18:20:00;100538.75;;;4.29;100.00
49055;BME280;35405;52.344;14.530;2022-12-24T18:22:25;100555.69;;;4.24;100.00
49055;BME280;35405;52.344;14.530;2022-12-24T18:24:50;100558.31;;;4.19;100.00
49055;BME280;35405;52.344;14.530;2022-12-24T18:27:16;100561.31;;;4.23;100.00
49055;BME280;35405;52.344;14.530;2022-12-24T18:29:41;100569.91;;;4.20;100.00
49055;BME280;35405;52.344;14.530;2022-12-24T18:32:07;100572.00;;;4.18;100.00
49055;BME280;35405;52.344;14.530;2022-12-24T18:34:32;100573.97;;;4.22;100.00
49055;BME280;35405;52.344;14.530;2022-12-24T18:36:58;100569.66;;;4.21;100.00
49055;BME280;35405;52.344;14.530;2022-12-24T18:39:23;100573.66;;;4.19;100.00
49055;BME280;35405;52.344;14.530;2022-12-24T18:41:48;100580.09;;;4.18;100.00
49055;BME280;35405;52.344;14.530;2022-12-24T18:44:13;100573.09;;;4.17;100.00
49055;BME280;35405;52.344;14.530;2022-12-24T18:46:39;100584.06;;;4.10;100.00
49055;BME280;35405;52.344;14.530;2022-12-24T18:49:04;100581.56;;;4.03;100.00
49055;BME280;35405;52.344;14.530;2022-12-24T18:51:30;100587.94;;;3.97;100.00
49055;BME280;35405;52.344;14.530;2022-12-24T18:53:56;100594.16;;;4.03;100.00
49055;BME280;35405;52.344;14.530;2022-12-24T18:56:22;100596.31;;;4.01;100.00
49055;BME280;35405;52.344;14.530;2022-12-24T18:58:50;100602.00;;;4.04;100.00
49055;BME280;35405;52.344;14.530;2022-12-24T19:01:17;100603.94;;;4.09;100.00
49055;BME280;35405;52.344;14.530;2022-12-24T19:03:42;100603.69;;;4.10;100.00
49055;BME280;35405;52.344;14.530;2022-12-24T19:06:08;100602.50;;;4.23;100.00
49055;BME280;35405;52.344;14.530;2022-12-24T19:08:34;100600.78;;;4.39;100.00
49055;BME280;35405;52.344;14.530;2022-12-24T19:10:59;100604.63;;;4.43;100.00
49055;BME280;35405;52.344;14.530;2022-12-24T19:13:24;100612.34;;;4.34;100.00
49055;BME280;35405;52.344;14.530;2022-12-24T19:15:49;100616.25;;;4.27;100.00
49055;BME280;35405;52.344;14.530;2022-12-24T19:18:15;100617.41;;;4.31;100.00
49055;BME280;35405;52.344;14.530;2022-12-24T19:20:40;100613.06;;;4.30;100.00
49055;BME280;35405;52.344;14.530;2022-12-24T19:23:06;100616.91;;;4.34;100.00
49055;BME280;35405;52.344;14.530;2022-12-24T19:25:31;100612.63;;;4.38;100.00
49055;BME280;35405;52.344;14.530;2022-12-24T19:27:56;100619.78;;;4.49;100.00
49055;BME280;35405;52.344;14.530;2022-12-24T19:30:22;100619.25;;;4.52;100.00
49055;BME280;35405;52.344;14.530;2022-12-24T19:32:47;100613.88;;;4.52;100.00
49055;BME280;35405;52.344;14.530;2022-12-24T19:35:12;100610.09;;;4.53;100.00
49055;BME280;35405;52.344;14.530;2022-12-24T19:37:37;100614.25;;;4.61;100.00
49055;BME280;35405;52.344;14.530;2022-12-24T19:40:02;100618.63;;;4.67;100.00
49055;BME280;35405;52.344;14.530;2022-12-24T19:42:28;100622.63;;;4.65;100.00
49055;BME280;35405;52.344;14.530;2022-12-24T19:44:53;100620.50;;;4.67;100.00
49055;BME280;35405;52.344;14.530;2022-12-24T19:47:19;100622.72;;;4.75;100.00
49055;BME280;35405;52.344;14.530;2022-12-24T19:49:44;100620.69;;;4.87;100.00
49055;BME280;35405;52.344;14.530;2022-12-24T19:52:09;100626.94;;;4.93;100.00
49055;BME280;35405;52.344;14.530;2022-12-24T19:54:34;100633.19;;;4.98;100.00
49055;BME280;35405;52.344;14.530;2022-12-24T19:56:59;100639.75;;;5.08;100.00
49055;BME280;35405;52.344;14.530;2022-12-24T19:59:24;100636.03;;;5.14;100.00
49055;BME280;35405;52.344;14.530;2022-12-24T20:01:50;100644.91;;;5.14;100.00
49055;BME280;35405;52.344;14.530;2022-12-24T20:40:29;100662.69;;;4.83;100.00
49055;BME280;35405;52.344;14.530;2022-12-24T20:42:54;100664.41;;;4.94;100.00
49055;BME280;35405;52.344;14.530;2022-12-24T20:45:19;100660.75;;;5.06;100.00
49055;BME280;35405;52.344;14.530;2022-12-24T20:47:44;100664.06;;;5.13;100.00
49055;BME280;35405;52.344;14.530;2022-12-24T20:50:09;100670.81;;;5.15;100.00
49055;BME280;35405;52.344;14.530;2022-12-24T20:52:35;100678.13;;;5.20;100.00
49055;BME280;35405;52.344;14.530;2022-12-24T20:55:00;100670.03;;;5.20;100.00
49055;BME280;35405;52.344;14.530;2022-12-24T20:57:25;100677.63;;;5.23;100.00
49055;BME280;35405;52.344;14.530;2022-12-24T20:59:50;100666.59;;;5.24;100.00
49055;BME280;35405;52.344;14.530;2022-12-24T21:02:15;100667.44;;;5.30;100.00
49055;BME280;35405;52.344;14.530;2022-12-24T21:04:40;100658.56;;;5.35;100.00
49055;BME280;35405;52.344;14.530;2022-12-24T21:07:06;100661.84;;;5.37;100.00
49055;BME280;35405;52.344;14.530;2022-12-24T21:09:31;100668.56;;;5.34;100.00
49055;BME280;35405;52.344;14.530;2022-12-24T21:11:56;100666.13;;;5.33;100.00
49055;BME280;35405;52.344;14.530;2022-12-24T21:14:22;100669.06;;;5.31;100.00
49055;BME280;35405;52.344;14.530;2022-12-24T21:16:48;100674.69;;;5.24;100.00
49055;BME280;35405;52.344;14.530;2022-12-24T21:19:15;100674.63;;;5.19;100.00
49055;BME280;35405;52.344;14.530;2022-12-24T21:21:41;100684.66;;;5.24;100.00
49055;BME280;35405;52.344;14.530;2022-12-24T21:24:07;100688.22;;;5.30;100.00
49055;BME280;35405;52.344;14.530;2022-12-24T21:26:32;100688.50;;;5.33;100.00
49055;BME280;35405;52.344;14.530;2022-12-24T21:28:58;100685.25;;;5.31;100.00
49055;BME280;35405;52.344;14.530;2022-12-24T21:31:23;100673.13;;;5.34;100.00
49055;BME280;35405;52.344;14.530;2022-12-24T21:33:48;100682.84;;;5.35;100.00
49055;BME280;35405;52.344;14.530;2022-12-24T21:36:13;100681.28;;;5.39;100.00
49055;BME280;35405;52.344;14.530;2022-12-24T21:38:39;100685.59;;;5.40;100.00
49055;BME280;35405;52.344;14.530;2022-12-24T21:41:05;100690.72;;;5.41;100.00
49055;BME280;35405;52.344;14.530;2022-12-24T21:43:32;100687.78;;;5.43;100.00
49055;BME280;35405;52.344;14.530;2022-12-24T21:45:57;100689.66;;;5.42;100.00
49055;BME280;35405;52.344;14.530;2022-12-24T21:48:23;100688.81;;;5.37;100.00
49055;BME280;35405;52.344;14.530;2022-12-24T21:51:07;100697.66;;;5.32;100.00
49055;BME280;35405;52.344;14.530;2022-12-24T21:53:32;100690.91;;;5.30;100.00
49055;BME280;35405;52.344;14.530;2022-12-24T21:56:16;100695.69;;;5.22;100.00
49055;BME280;35405;52.344;14.530;2022-12-24T21:58:41;100693.50;;;5.19;100.00
49055;BME280;35405;52.344;14.530;2022-12-24T22:01:07;100697.06;;;5.25;100.00
49055;BME280;35405;52.344;14.530;2022-12-24T22:03:32;100700.31;;;5.27;100.00
49055;BME280;35405;52.344;14.530;2022-12-24T22:05:58;100696.81;;;5.26;100.00
49055;BME280;35405;52.344;14.530;2022-12-24T22:08:23;100704.06;;;5.26;100.00
49055;BME280;35405;52.344;14.530;2022-12-24T22:11:09;100709.72;;;5.24;100.00
49055;BME280;35405;52.344;14.530;2022-12-24T22:13:54;100718.13;;;5.28;100.00
49055;BME280;35405;52.344;14.530;2022-12-24T22:16:19;100724.59;;;5.27;100.00
49055;BME280;35405;52.344;14.530;2022-12-24T22:18:44;100722.19;;;5.31;100.00
49055;BME280;35405;52.344;14.530;2022-12-24T22:21:09;100727.59;;;5.31;100.00
49055;BME280;35405;52.344;14.530;2022-12-24T22:23:35;100732.47;;;5.34;100.00
49055;BME280;35405;52.344;14.530;2022-12-24T22:26:08;100732.47;;;5.34;100.00